Time;durP1;ratioP1;P1;durP2;ratioP2;P2;SDS_P1;SDS_P2;PMS_P1;PMS_P2;Temp;Humidity;BMP_temperature;BMP_pressure;BME280_temperature;BME280_humidity;BME280_pressure;Samples;Min_cycle;Max_cycle;Signal;HPM_P1;HPM_P2
2021/11/22 00:00:26;;;;;;;27.83;13.80;;;2.00;99.90;;;;;;5115775;28;20409;-78
2021/11/22 00:02:54;;;;;;;28.53;14.40;;;2.00;99.90;;;;;;5117021;28;20203;-77
2021/11/22 00:05:20;;;;;;;28.07;14.10;;;2.00;99.90;;;;;;5117462;28;20543;-77
2021/11/22 00:07:46;;;;;;;39.47;14.23;;;2.00;99.90;;;;;;5116274;28;20448;-77
2021/11/22 00:10:12;;;;;;;33.57;14.90;;;2.00;99.90;;;;;;5117788;28;20172;-77
2021/11/22 00:12:38;;;;;;;34.47;16.17;;;2.10;99.90;;;;;;5121705;28;20659;-77
2021/11/22 00:15:06;;;;;;;32.50;15.63;;;2.10;99.90;;;;;;5114701;28;20518;-77
2021/11/22 00:17:34;;;;;;;30.43;15.07;;;2.00;99.90;;;;;;5115526;28;20176;-77
2021/11/22 00:20:00;;;;;;;28.00;15.23;;;2.00;99.90;;;;;;5118498;28;20406;-78
2021/11/22 00:22:27;;;;;;;46.40;14.67;;;2.00;99.90;;;;;;5117173;28;20441;-78
2021/11/22 00:24:53;;;;;;;25.80;12.70;;;2.00;99.90;;;;;;5118170;28;20455;-77
2021/11/22 00:27:20;;;;;;;29.50;14.70;;;2.00;99.90;;;;;;5117293;28;20417;-78
2021/11/22 00:29:45;;;;;;;33.60;13.77;;;2.00;99.90;;;;;;5117079;28;20413;-77
2021/11/22 00:32:11;;;;;;;52.77;14.30;;;2.00;99.90;;;;;;5118525;28;20512;-78
2021/11/22 00:34:44;;;;;;;44.47;13.47;;;2.00;99.90;;;;;;5118814;28;20183;-77
2021/11/22 00:37:24;;;;;;;31.27;13.23;;;2.00;99.90;;;;;;5117976;28;20250;-78
2021/11/22 00:39:49;;;;;;;54.00;15.57;;;1.90;99.90;;;;;;5120109;28;20892;-78
2021/11/22 00:42:15;;;;;;;36.33;13.90;;;1.90;99.90;;;;;;5118697;28;20515;-77
2021/11/22 00:44:42;;;;;;;40.43;13.57;;;1.90;99.90;;;;;;5117653;28;20175;-77
2021/11/22 00:47:09;;;;;;;32.77;14.60;;;1.90;99.90;;;;;;5117740;28;20203;-77
2021/11/22 00:49:36;;;;;;;51.87;14.93;;;2.00;99.90;;;;;;5117836;28;20397;-77
2021/11/22 00:52:04;;;;;;;37.90;15.17;;;1.90;99.90;;;;;;5116003;28;20429;-77
2021/11/22 00:54:30;;;;;;;67.80;15.23;;;1.90;99.90;;;;;;5116187;28;20466;-77
2021/11/22 00:56:56;;;;;;;54.70;13.37;;;1.80;99.90;;;;;;5117474;28;20754;-77
2021/11/22 00:59:22;;;;;;;38.87;14.13;;;1.80;99.90;;;;;;5117562;28;20499;-77
2021/11/22 01:01:50;;;;;;;45.80;14.70;;;1.80;99.90;;;;;;5117506;28;20214;-78
2021/11/22 01:04:17;;;;;;;52.60;15.07;;;1.80;99.90;;;;;;5117691;28;20413;-77
2021/11/22 01:06:42;;;;;;;46.90;15.27;;;1.80;99.90;;;;;;5117681;28;20456;-77
2021/11/22 01:09:08;;;;;;;42.03;13.93;;;1.80;99.90;;;;;;5117340;28;20435;-77
2021/11/22 01:11:34;;;;;;;44.03;14.77;;;1.80;99.90;;;;;;5115724;28;20188;-77
2021/11/22 01:14:00;;;;;;;55.23;15.60;;;1.80;99.90;;;;;;5116093;28;20419;-77
2021/11/22 01:16:29;;;;;;;49.37;14.97;;;1.80;99.90;;;;;;5117173;28;20226;-78
2021/11/22 01:18:56;;;;;;;52.27;14.57;;;1.80;99.90;;;;;;5115939;28;20417;-77
2021/11/22 01:21:22;;;;;;;35.33;14.93;;;1.70;99.90;;;;;;5115568;28;20946;-77
2021/11/22 01:23:47;;;;;;;72.77;15.63;;;1.70;99.90;;;;;;5117229;28;20458;-77
2021/11/22 01:26:13;;;;;;;60.57;14.73;;;1.70;99.90;;;;;;5116995;28;20195;-77
2021/11/22 01:28:39;;;;;;;54.70;14.23;;;1.70;99.90;;;;;;5115376;28;20656;-78
2021/11/22 01:31:05;;;;;;;35.43;14.33;;;1.70;99.90;;;;;;5115391;28;20176;-78
2021/11/22 01:33:30;;;;;;;42.77;14.83;;;1.80;99.90;;;;;;5115473;28;20176;-78
2021/11/22 01:35:56;;;;;;;59.17;14.90;;;1.80;99.90;;;;;;5116569;28;20206;-77
2021/11/22 01:38:22;;;;;;;38.20;13.40;;;1.80;99.90;;;;;;5115422;28;20258;-77
2021/11/22 01:40:49;;;;;;;39.90;14.63;;;1.70;99.90;;;;;;5115291;28;20213;-77
2021/11/22 01:43:16;;;;;;;40.77;14.97;;;1.80;99.90;;;;;;5115009;28;20713;-77
2021/11/22 01:45:43;;;;;;;41.10;13.90;;;1.80;99.90;;;;;;5115115;28;20480;-77
2021/11/22 01:48:09;;;;;;;35.17;14.63;;;1.80;99.90;;;;;;5116367;28;20401;-77
2021/11/22 01:50:35;;;;;;;42.67;16.23;;;1.80;99.90;;;;;;5114894;28;20409;-77
2021/11/22 01:53:01;;;;;;;31.97;14.80;;;1.70;99.90;;;;;;5116361;28;20428;-77
2021/11/22 01:55:29;;;;;;;43.43;15.43;;;1.70;99.90;;;;;;5116416;28;20191;-78
2021/11/22 01:57:55;;;;;;;47.43;15.07;;;1.80;99.90;;;;;;5119147;28;20418;-78
2021/11/22 02:00:32;;;;;;;35.27;15.83;;;1.80;99.90;;;;;;5123122;28;20394;-78
2021/11/22 02:03:00;;;;;;;33.03;14.97;;;1.80;99.90;;;;;;5123429;28;20910;-78
2021/11/22 02:05:26;;;;;;;38.97;14.97;;;1.80;99.90;;;;;;5119440;28;20614;-77
2021/11/22 02:07:52;;;;;;;36.23;16.20;;;1.80;99.90;;;;;;5116321;28;20405;-77
2021/11/22 02:10:19;;;;;;;37.43;14.17;;;1.80;99.90;;;;;;5114504;28;20410;-78
2021/11/22 02:12:46;;;;;;;29.47;14.43;;;1.90;99.90;;;;;;5114855;28;20433;-77
2021/11/22 02:15:14;;;;;;;35.70;14.00;;;1.90;99.90;;;;;;5115965;28;20502;-77
2021/11/22 02:17:43;;;;;;;41.20;16.20;;;1.90;99.90;;;;;;5115924;28;20854;-77
2021/11/22 02:20:13;;;;;;;39.27;15.00;;;1.90;99.90;;;;;;5115640;28;20855;-78
2021/11/22 02:22:38;;;;;;;37.63;16.03;;;1.80;99.90;;;;;;5115903;28;20479;-77
2021/11/22 02:25:08;;;;;;;39.20;16.93;;;1.80;99.90;;;;;;5115787;27;20453;-77
2021/11/22 02:27:34;;;;;;;35.43;15.27;;;1.80;99.90;;;;;;5115795;28;20641;-77
2021/11/22 02:30:00;;;;;;;40.83;15.30;;;1.80;99.90;;;;;;5115418;28;20401;-78
2021/11/22 02:32:26;;;;;;;32.00;15.40;;;1.80;99.90;;;;;;5115659;28;20429;-77
2021/11/22 02:34:52;;;;;;;37.27;15.63;;;1.80;99.90;;;;;;5115506;27;20425;-77
2021/11/22 02:37:18;;;;;;;31.50;14.80;;;1.80;99.90;;;;;;5115505;28;20232;-77
2021/11/22 02:39:44;;;;;;;34.13;15.00;;;1.80;99.90;;;;;;5114858;28;20401;-77
2021/11/22 02:42:21;;;;;;;29.03;14.03;;;1.80;99.90;;;;;;5113793;28;20191;-77
2021/11/22 02:44:46;;;;;;;32.27;13.77;;;1.80;99.90;;;;;;5115783;28;20186;-77
2021/11/22 02:47:12;;;;;;;27.80;13.63;;;1.80;99.90;;;;;;5113641;28;20462;-77
2021/11/22 02:49:38;;;;;;;30.33;13.57;;;1.80;99.90;;;;;;5115236;28;20202;-77
2021/11/22 02:52:04;;;;;;;33.67;13.17;;;1.80;99.90;;;;;;5114795;28;20592;-77
2021/11/22 02:54:30;;;;;;;33.70;13.47;;;1.80;99.90;;;;;;5113788;28;20537;-77
2021/11/22 02:56:56;;;;;;;36.63;14.10;;;1.80;99.90;;;;;;5113718;28;20421;-77
2021/11/22 02:59:21;;;;;;;38.87;13.63;;;1.90;99.90;;;;;;5113782;28;20216;-77
2021/11/22 03:01:47;;;;;;;30.63;13.53;;;1.90;99.90;;;;;;5115005;28;20658;-77
2021/11/22 03:04:13;;;;;;;31.40;14.13;;;1.80;99.90;;;;;;5115415;28;20649;-77
2021/11/22 03:06:38;;;;;;;29.83;13.53;;;1.80;99.90;;;;;;5116273;28;20245;-77
2021/11/22 03:09:05;;;;;;;24.00;11.93;;;1.80;99.90;;;;;;5116078;28;20220;-77
2021/11/22 03:11:31;;;;;;;28.50;13.47;;;1.80;99.90;;;;;;5114597;28;20199;-77
2021/11/22 03:13:56;;;;;;;32.13;12.63;;;1.80;99.90;;;;;;5115250;28;20420;-77
2021/11/22 03:16:22;;;;;;;27.83;12.60;;;1.80;99.90;;;;;;5113311;28;20663;-77
2021/11/22 03:18:48;;;;;;;28.17;12.53;;;1.80;99.90;;;;;;5114926;28;20178;-77
2021/11/22 03:21:14;;;;;;;28.57;12.87;;;1.80;99.90;;;;;;5113136;28;20696;-77
2021/11/22 03:23:41;;;;;;;27.30;11.77;;;1.80;99.90;;;;;;5114726;28;20172;-77
2021/11/22 03:26:07;;;;;;;27.47;12.60;;;1.90;99.90;;;;;;5113336;28;20500;-77
2021/11/22 03:28:33;;;;;;;21.67;11.03;;;1.90;99.90;;;;;;5113383;28;20417;-77
2021/11/22 03:30:59;;;;;;;23.73;11.70;;;1.90;99.90;;;;;;5114239;28;20175;-77
2021/11/22 03:33:25;;;;;;;21.97;11.10;;;1.90;99.90;;;;;;5113140;28;20425;-77
2021/11/22 03:35:53;;;;;;;24.00;11.97;;;1.90;99.90;;;;;;5113277;28;20786;-77
2021/11/22 03:38:21;;;;;;;23.80;11.17;;;1.90;99.90;;;;;;5113211;28;20261;-77
2021/11/22 03:40:48;;;;;;;24.97;12.10;;;2.00;99.90;;;;;;5114218;28;20417;-77
2021/11/22 03:43:17;;;;;;;26.43;11.80;;;2.00;99.90;;;;;;5114228;28;20428;-77
2021/11/22 03:45:47;;;;;;;23.73;11.23;;;2.00;99.90;;;;;;5112950;28;20463;-77
2021/11/22 03:48:13;;;;;;;26.83;12.13;;;1.90;99.90;;;;;;5113230;28;20417;-77
2021/11/22 03:50:39;;;;;;;26.40;12.10;;;1.90;99.90;;;;;;5114221;28;20754;-77
2021/11/22 03:53:05;;;;;;;24.27;12.17;;;1.90;99.90;;;;;;5118226;28;20432;-78
2021/11/22 03:55:31;;;;;;;21.47;11.07;;;1.90;99.90;;;;;;5118959;28;20258;-77
2021/11/22 03:57:57;;;;;;;23.37;12.23;;;1.90;99.90;;;;;;5118534;28;20180;-78
2021/11/22 04:00:24;;;;;;;28.30;12.83;;;1.90;99.90;;;;;;5118282;28;20186;-77
2021/11/22 04:02:50;;;;;;;30.10;13.13;;;1.90;99.90;;;;;;5118246;28;20226;-77
2021/11/22 04:05:16;;;;;;;31.03;13.07;;;1.90;99.90;;;;;;5117105;28;20480;-77
2021/11/22 04:07:42;;;;;;;29.17;11.90;;;1.90;99.90;;;;;;5121357;28;20905;-77
2021/11/22 04:10:09;;;;;;;29.57;13.47;;;1.90;99.90;;;;;;5121144;28;20174;-78
2021/11/22 04:12:34;;;;;;;34.20;12.70;;;1.90;99.90;;;;;;5119751;28;20460;-77
2021/11/22 04:15:01;;;;;;;31.87;13.03;;;1.90;99.90;;;;;;5118321;28;20890;-77
2021/11/22 04:17:26;;;;;;;42.87;14.30;;;1.90;99.90;;;;;;5116870;28;20260;-77
2021/11/22 04:19:52;;;;;;;42.97;14.33;;;1.90;99.90;;;;;;5117200;28;20512;-77
2021/11/22 04:22:18;;;;;;;34.77;12.53;;;1.80;99.90;;;;;;5117782;28;20195;-77
2021/11/22 04:24:44;;;;;;;33.57;14.07;;;1.80;99.90;;;;;;5117743;28;20171;-77
2021/11/22 04:27:12;;;;;;;34.13;13.43;;;1.80;99.90;;;;;;5118254;28;20203;-77
2021/11/22 04:29:40;;;;;;;30.27;12.27;;;1.90;99.90;;;;;;5116570;28;20602;-77
2021/11/22 04:32:07;;;;;;;27.63;13.40;;;1.90;99.90;;;;;;5117725;28;20433;-77
2021/11/22 04:34:34;;;;;;;26.70;12.53;;;1.90;99.90;;;;;;5116570;28;20946;-77
2021/11/22 04:37:00;;;;;;;25.90;12.20;;;1.90;99.90;;;;;;5116746;28;20452;-77
2021/11/22 04:39:26;;;;;;;23.80;11.77;;;1.90;99.90;;;;;;5116985;28;20421;-77
2021/11/22 04:41:52;;;;;;;27.47;12.60;;;1.90;99.90;;;;;;5116251;28;20203;-77
2021/11/22 04:44:18;;;;;;;26.60;12.90;;;1.90;99.90;;;;;;5116563;28;20460;-77
2021/11/22 04:46:43;;;;;;;24.73;11.70;;;1.90;99.90;;;;;;5117715;28;20251;-77
2021/11/22 04:49:09;;;;;;;33.43;12.07;;;1.90;99.90;;;;;;5116292;28;20812;-77
2021/11/22 04:51:36;;;;;;;27.57;11.67;;;1.80;99.90;;;;;;5117142;28;20621;-78
2021/11/22 04:54:01;;;;;;;27.30;11.63;;;1.80;99.90;;;;;;5117678;28;20565;-77
2021/11/22 04:56:27;;;;;;;24.80;11.60;;;1.80;99.90;;;;;;5118107;28;20413;-77
2021/11/22 04:58:53;;;;;;;25.47;11.10;;;1.80;99.90;;;;;;5117704;27;20267;-77
2021/11/22 05:01:19;;;;;;;24.90;10.47;;;1.80;99.90;;;;;;5117341;28;20171;-77
2021/11/22 05:03:48;;;;;;;26.80;11.47;;;1.70;99.90;;;;;;5116693;28;20578;-78
2021/11/22 05:06:14;;;;;;;28.97;12.30;;;1.70;99.90;;;;;;5116263;28;20207;-77
2021/11/22 05:08:40;;;;;;;25.00;11.53;;;1.70;99.90;;;;;;5117802;28;20454;-77
2021/11/22 05:11:05;;;;;;;24.87;11.73;;;1.70;99.90;;;;;;5117494;28;20401;-77
2021/11/22 05:13:31;;;;;;;35.30;12.30;;;1.70;99.90;;;;;;5117623;28;20581;-79
2021/11/22 05:15:57;;;;;;;26.23;11.27;;;1.70;99.90;;;;;;5116118;28;20183;-77
2021/11/22 05:18:23;;;;;;;26.20;11.20;;;1.70;99.90;;;;;;5117569;28;20534;-78
2021/11/22 05:20:48;;;;;;;23.27;10.87;;;1.80;99.90;;;;;;5116176;28;20624;-77
2021/11/22 05:23:14;;;;;;;25.53;10.67;;;1.80;99.90;;;;;;5117667;28;20198;-77
2021/11/22 05:25:41;;;;;;;29.57;11.37;;;1.80;99.90;;;;;;5117641;28;20192;-77
2021/11/22 05:28:08;;;;;;;22.13;12.10;;;1.80;99.90;;;;;;5117528;28;20199;-78
2021/11/22 05:30:35;;;;;;;20.73;10.83;;;1.90;99.90;;;;;;5116595;28;20800;-77
2021/11/22 05:33:03;;;;;;;24.20;11.60;;;1.90;99.90;;;;;;5116364;28;20774;-78
2021/11/22 05:35:30;;;;;;;24.20;10.13;;;1.90;99.90;;;;;;5117845;28;20432;-78
2021/11/22 05:37:56;;;;;;;24.07;11.10;;;1.90;99.90;;;;;;5117621;28;20498;-78
2021/11/22 05:40:22;;;;;;;26.93;10.83;;;1.80;99.90;;;;;;5117674;28;20928;-78
2021/11/22 05:42:48;;;;;;;25.07;11.30;;;1.80;99.90;;;;;;5116534;28;20527;-77
2021/11/22 05:45:14;;;;;;;26.80;10.80;;;1.80;99.90;;;;;;5115303;28;20203;-77
2021/11/22 05:47:40;;;;;;;30.13;11.90;;;1.80;99.90;;;;;;5115101;28;20786;-77
2021/11/22 05:50:07;;;;;;;24.20;11.43;;;1.80;99.90;;;;;;5116617;28;20176;-78
2021/11/22 05:52:38;;;;;;;27.30;12.27;;;1.80;99.90;;;;;;5116393;28;20184;-78
2021/11/22 05:55:09;;;;;;;31.20;11.63;;;1.80;99.90;;;;;;5116650;28;20406;-77
2021/11/22 05:57:35;;;;;;;31.83;12.13;;;1.80;99.90;;;;;;5115065;28;20438;-77
2021/11/22 06:00:01;;;;;;;26.63;12.13;;;1.90;99.90;;;;;;5116333;28;20413;-79
2021/11/22 06:02:26;;;;;;;31.83;12.97;;;1.80;99.90;;;;;;5114975;28;20206;-77
2021/11/22 06:04:52;;;;;;;31.03;10.67;;;1.80;99.90;;;;;;5115298;28;20182;-77
2021/11/22 06:07:18;;;;;;;25.67;12.50;;;1.80;99.90;;;;;;5116356;28;20168;-77
2021/11/22 06:09:44;;;;;;;22.80;11.70;;;1.70;99.90;;;;;;5116361;27;20179;-77
2021/11/22 06:12:10;;;;;;;24.33;11.40;;;1.70;99.90;;;;;;5119126;28;20194;-77
2021/11/22 06:14:36;;;;;;;23.50;12.60;;;1.70;99.90;;;;;;5126416;28;20163;-79
2021/11/22 06:17:01;;;;;;;24.63;11.13;;;1.70;99.90;;;;;;5118838;28;20915;-77
2021/11/22 06:19:27;;;;;;;32.00;14.47;;;1.70;99.90;;;;;;5117056;28;20164;-77
2021/11/22 06:21:53;;;;;;;27.40;12.73;;;1.70;99.90;;;;;;5114598;28;20747;-78
2021/11/22 06:24:19;;;;;;;26.27;12.67;;;1.70;99.90;;;;;;5116433;28;20655;-77
2021/11/22 06:26:45;;;;;;;23.03;11.70;;;1.80;99.90;;;;;;5116138;28;20199;-77
2021/11/22 06:29:16;;;;;;;19.70;11.73;;;1.80;99.90;;;;;;5114668;28;20196;-77
2021/11/22 06:31:42;;;;;;;20.70;11.03;;;1.90;99.90;;;;;;5115825;28;20668;-78
2021/11/22 06:34:08;;;;;;;23.23;11.67;;;1.80;99.90;;;;;;5115973;28;20405;-77
2021/11/22 06:36:33;;;;;;;19.73;11.00;;;1.90;99.90;;;;;;5113937;28;20163;-78
2021/11/22 06:38:59;;;;;;;21.63;10.97;;;1.90;99.90;;;;;;5116313;28;20172;-78
2021/11/22 06:41:25;;;;;;;17.23;10.57;;;1.90;99.90;;;;;;5115707;28;20195;-78
2021/11/22 06:43:52;;;;;;;21.10;11.37;;;1.90;99.90;;;;;;5117554;28;20198;-79
2021/11/22 06:46:17;;;;;;;16.07;10.57;;;2.00;99.90;;;;;;5117879;28;20549;-78
2021/11/22 06:48:43;;;;;;;18.47;10.53;;;2.00;99.90;;;;;;5117189;28;20401;-78
2021/11/22 06:51:09;;;;;;;16.83;10.10;;;2.00;99.90;;;;;;5115945;28;20258;-79
2021/11/22 06:53:35;;;;;;;20.70;10.63;;;1.90;99.90;;;;;;5117551;28;20196;-78
2021/11/22 06:56:00;;;;;;;17.07;10.73;;;1.90;99.90;;;;;;5117475;28;20709;-78
2021/11/22 06:58:26;;;;;;;18.43;11.37;;;1.80;99.90;;;;;;5117103;28;20538;-78
2021/11/22 07:00:52;;;;;;;17.93;10.87;;;1.90;99.90;;;;;;5117192;28;20216;-78
2021/11/22 07:03:18;;;;;;;22.43;12.70;;;1.90;99.90;;;;;;5116127;28;20559;-78
2021/11/22 07:05:44;;;;;;;17.97;11.23;;;2.00;99.90;;;;;;5116222;28;20488;-78
2021/11/22 07:08:10;;;;;;;18.87;12.10;;;2.00;99.90;;;;;;5117844;28;20437;-79
2021/11/22 07:10:36;;;;;;;20.30;12.07;;;2.00;99.90;;;;;;5116057;28;20178;-79
2021/11/22 07:13:02;;;;;;;21.30;11.70;;;2.10;99.90;;;;;;5117397;28;20222;-79
2021/11/22 07:15:35;;;;;;;21.90;12.33;;;2.10;99.90;;;;;;5116163;28;20413;-79
2021/11/22 07:18:01;;;;;;;19.37;11.13;;;2.00;99.90;;;;;;5116788;28;20413;-78
2021/11/22 07:20:27;;;;;;;20.90;12.10;;;2.10;99.90;;;;;;5117933;28;20508;-78
2021/11/22 07:22:53;;;;;;;18.50;11.50;;;2.20;99.90;;;;;;5118995;28;20961;-78
2021/11/22 07:25:19;;;;;;;17.53;10.57;;;2.20;99.90;;;;;;5117763;28;20587;-78
2021/11/22 07:27:45;;;;;;;19.27;10.93;;;2.20;99.90;;;;;;5117967;28;20171;-79
2021/11/22 07:30:11;;;;;;;18.63;11.43;;;2.30;99.90;;;;;;5115982;28;20401;-77
2021/11/22 07:32:37;;;;;;;19.73;11.27;;;2.30;99.90;;;;;;5116637;28;20937;-78
2021/11/22 07:35:03;;;;;;;19.70;11.90;;;2.30;99.90;;;;;;5117430;28;20203;-79
2021/11/22 07:37:30;;;;;;;19.40;11.17;;;2.40;99.90;;;;;;5117788;28;20205;-78
2021/11/22 07:39:56;;;;;;;22.13;12.10;;;2.30;99.90;;;;;;5115701;28;20496;-78
2021/11/22 07:42:22;;;;;;;18.47;11.00;;;2.40;99.90;;;;;;5114593;28;20455;-78
2021/11/22 07:44:49;;;;;;;18.17;11.77;;;2.40;99.90;;;;;;5116875;28;20204;-78
2021/11/22 07:47:15;;;;;;;19.43;11.67;;;2.30;99.90;;;;;;5116405;28;20168;-78
2021/11/22 07:49:41;;;;;;;18.50;11.60;;;2.30;99.90;;;;;;5115064;28;20776;-78
2021/11/22 07:52:07;;;;;;;17.23;11.13;;;2.30;99.90;;;;;;5116458;28;20642;-78
2021/11/22 07:54:33;;;;;;;15.90;10.20;;;2.40;99.90;;;;;;5115377;28;20168;-78
2021/11/22 07:56:59;;;;;;;18.03;10.83;;;2.40;99.90;;;;;;5116965;28;20416;-78
2021/11/22 07:59:25;;;;;;;15.60;10.73;;;2.50;99.90;;;;;;5116201;28;20179;-78
2021/11/22 08:01:51;;;;;;;18.27;11.17;;;2.50;99.90;;;;;;5118439;28;20668;-78
2021/11/22 08:04:17;;;;;;;19.17;11.17;;;2.60;99.90;;;;;;5117208;28;20185;-78
2021/11/22 08:06:48;;;;;;;19.43;11.43;;;2.60;99.90;;;;;;5119775;28;20204;-78
2021/11/22 08:09:32;;;;;;;21.13;12.40;;;2.70;99.90;;;;;;5115401;28;20466;-78
2021/11/22 08:14:37;;;;;;;18.90;11.20;;;2.70;99.90;;;;;;5116766;28;20728;-78
2021/11/22 08:17:05;;;;;;;15.90;10.37;;;2.70;99.90;;;;;;5117704;28;20405;-78
2021/11/22 08:19:30;;;;;;;15.73;10.03;;;2.70;99.90;;;;;;5115892;28;20494;-78
2021/11/22 08:21:57;;;;;;;17.60;11.03;;;2.70;99.90;;;;;;5117018;28;20945;-78
2021/11/22 08:24:26;;;;;;;17.90;10.67;;;2.70;99.90;;;;;;5118108;28;20163;-78
2021/11/22 08:26:54;;;;;;;18.20;11.30;;;2.70;99.90;;;;;;5114134;28;20460;-78
2021/11/22 08:29:20;;;;;;;17.23;10.57;;;2.70;99.90;;;;;;5114683;28;20413;-78
2021/11/22 08:31:46;;;;;;;18.93;11.57;;;2.70;99.90;;;;;;5114140;28;20823;-78
2021/11/22 08:34:12;;;;;;;22.27;14.37;;;2.70;99.90;;;;;;5113934;28;20182;-78
2021/11/22 08:36:38;;;;;;;18.03;11.57;;;2.80;99.90;;;;;;5114316;28;20643;-78
2021/11/22 08:39:04;;;;;;;19.53;10.63;;;2.80;99.90;;;;;;5117861;28;20175;-78
2021/11/22 08:41:30;;;;;;;27.43;12.90;;;2.80;99.90;;;;;;5119941;28;20194;-78
2021/11/22 08:43:55;;;;;;;26.30;11.50;;;2.80;99.90;;;;;;5119916;28;20409;-78
2021/11/22 08:46:22;;;;;;;19.43;11.97;;;2.80;99.90;;;;;;5117521;28;20223;-78
2021/11/22 08:48:47;;;;;;;20.90;11.60;;;2.90;99.90;;;;;;5118093;28;20214;-78
2021/11/22 08:51:13;;;;;;;16.37;10.93;;;2.80;99.90;;;;;;5119168;28;20405;-78
2021/11/22 08:53:39;;;;;;;22.03;11.40;;;2.80;99.90;;;;;;5119370;28;20167;-78
2021/11/22 08:56:04;;;;;;;18.80;10.83;;;2.80;99.90;;;;;;5118947;28;20175;-78
2021/11/22 08:58:30;;;;;;;19.33;11.47;;;2.80;99.90;;;;;;5118830;28;20171;-78
2021/11/22 09:00:56;;;;;;;17.47;9.97;;;2.80;99.90;;;;;;5116969;28;20199;-78
2021/11/22 09:03:22;;;;;;;19.63;10.50;;;2.80;99.90;;;;;;5118101;28;20914;-78
2021/11/22 09:05:48;;;;;;;18.70;10.83;;;2.80;99.90;;;;;;5118381;28;20191;-78
2021/11/22 09:08:14;;;;;;;16.07;10.40;;;2.90;99.90;;;;;;5117959;28;20171;-78
2021/11/22 09:10:39;;;;;;;16.43;10.03;;;2.90;99.90;;;;;;5116077;28;20191;-78
2021/11/22 09:13:05;;;;;;;22.93;11.23;;;2.90;99.90;;;;;;5116618;28;20191;-79
2021/11/22 09:15:32;;;;;;;15.27;9.23;;;2.90;99.90;;;;;;5119946;28;20195;-79
2021/11/22 09:17:58;;;;;;;18.80;10.40;;;3.00;99.90;;;;;;5119819;28;20221;-79
2021/11/22 09:20:25;;;;;;;16.43;10.27;;;2.90;99.90;;;;;;5119361;28;20625;-78
2021/11/22 09:22:56;;;;;;;15.07;9.97;;;3.00;99.90;;;;;;5118284;28;20482;-78
2021/11/22 09:25:22;;;;;;;18.23;9.17;;;3.00;99.90;;;;;;5117611;28;20231;-79
2021/11/22 09:27:50;;;;;;;15.33;9.80;;;3.00;99.90;;;;;;5117738;28;20416;-79
2021/11/22 09:30:17;;;;;;;14.40;9.53;;;3.00;99.90;;;;;;5117622;28;20425;-78
2021/11/22 09:32:44;;;;;;;17.03;10.57;;;3.00;99.90;;;;;;5117745;28;20436;-79
2021/11/22 09:35:09;;;;;;;15.40;10.27;;;3.00;99.90;;;;;;5119363;28;20425;-78
2021/11/22 09:37:37;;;;;;;15.50;9.47;;;3.10;99.90;;;;;;5118429;28;20764;-78
2021/11/22 09:40:05;;;;;;;16.83;9.37;;;3.10;99.90;;;;;;5118079;28;20698;-78
2021/11/22 09:42:31;;;;;;;17.33;9.90;;;3.10;99.90;;;;;;5118106;28;20470;-78
2021/11/22 09:44:58;;;;;;;14.90;9.70;;;3.10;99.90;;;;;;5118667;28;20433;-78
2021/11/22 09:47:23;;;;;;;15.40;9.17;;;3.20;99.90;;;;;;5117121;28;20413;-78
2021/11/22 09:49:54;;;;;;;14.57;9.17;;;3.30;99.90;;;;;;5118708;28;20420;-78
2021/11/22 09:52:23;;;;;;;17.73;10.60;;;3.40;99.90;;;;;;5117826;28;20191;-78
2021/11/22 09:54:50;;;;;;;17.60;9.23;;;3.40;99.90;;;;;;5118797;28;20170;-78
2021/11/22 09:57:15;;;;;;;15.13;9.37;;;3.40;99.90;;;;;;5118120;28;20971;-78
2021/11/22 09:59:42;;;;;;;14.27;10.03;;;3.30;99.90;;;;;;5117196;28;20413;-78
2021/11/22 10:02:08;;;;;;;10.77;7.93;;;3.40;99.90;;;;;;5117921;28;20188;-78
2021/11/22 10:04:34;;;;;;;16.23;8.60;;;3.30;99.90;;;;;;5118866;28;20414;-78
2021/11/22 10:07:05;;;;;;;11.47;7.83;;;3.40;99.90;;;;;;5117911;28;20195;-78
2021/11/22 10:09:34;;;;;;;12.37;7.57;;;3.30;99.90;;;;;;5118181;28;20152;-78
2021/11/22 10:12:04;;;;;;;9.73;7.40;;;3.30;99.90;;;;;;5116317;28;20429;-78
2021/11/22 10:14:44;;;;;;;12.57;7.70;;;3.30;99.90;;;;;;5117093;28;20419;-78
2021/11/22 10:17:33;;;;;;;14.80;12.17;;;3.20;99.90;;;;;;5116517;28;20413;-78
2021/11/22 10:20:08;;;;;;;9.90;7.77;;;3.30;99.90;;;;;;5118183;28;20410;-79
2021/11/22 10:22:45;;;;;;;10.90;7.23;;;3.40;99.90;;;;;;5118218;28;20421;-78
2021/11/22 10:25:20;;;;;;;11.43;7.57;;;3.30;99.90;;;;;;5119964;28;20389;-79
2021/11/22 10:27:46;;;;;;;54.30;48.53;;;3.30;99.90;;;;;;5119304;28;20171;-78
2021/11/22 10:30:25;;;;;;;14.60;9.80;;;3.30;99.90;;;;;;5119556;28;20445;-79
2021/11/22 10:32:54;;;;;;;13.27;7.40;;;3.40;99.90;;;;;;5119453;28;20445;-79
2021/11/22 10:35:21;;;;;;;11.40;6.83;;;3.40;99.90;;;;;;5119791;28;20512;-78
2021/11/22 10:38:10;;;;;;;10.20;6.97;;;3.40;99.90;;;;;;5116409;28;20413;-78
2021/11/22 10:40:38;;;;;;;9.40;6.80;;;3.40;99.90;;;;;;5116057;28;20453;-79
2021/11/22 10:43:06;;;;;;;19.80;9.57;;;3.40;99.90;;;;;;5116514;28;20421;-79
2021/11/22 10:45:42;;;;;;;11.10;6.87;;;3.40;99.90;;;;;;5116467;28;20540;-78
2021/11/22 10:48:27;;;;;;;10.17;7.13;;;3.40;99.90;;;;;;5117574;28;20409;-79
2021/11/22 10:51:23;;;;;;;10.90;7.20;;;3.50;99.90;;;;;;5115980;28;20500;-78
2021/11/22 10:54:06;;;;;;;11.17;6.60;;;3.60;99.90;;;;;;5117741;28;20163;-79
2021/11/22 10:56:38;;;;;;;10.43;6.73;;;3.50;99.90;;;;;;5117333;27;20247;-79
2021/11/22 10:59:06;;;;;;;9.67;6.43;;;3.50;99.90;;;;;;5118247;28;20434;-78
2021/11/22 11:01:39;;;;;;;9.97;6.70;;;3.50;99.90;;;;;;5114841;28;20202;-79
2021/11/22 11:04:14;;;;;;;10.13;7.13;;;3.50;99.90;;;;;;5117669;28;20397;-79
2021/11/22 11:06:42;;;;;;;10.40;6.90;;;3.60;99.90;;;;;;5117348;28;20437;-79
2021/11/22 11:09:16;;;;;;;12.70;7.80;;;3.60;99.90;;;;;;5117048;28;20175;-79
2021/11/22 11:11:43;;;;;;;9.13;6.33;;;3.60;99.90;;;;;;5116653;28;20243;-78
2021/11/22 11:14:12;;;;;;;9.23;6.37;;;3.60;99.90;;;;;;5117202;28;20174;-79
2021/11/22 11:16:39;;;;;;;9.80;7.27;;;3.60;99.90;;;;;;5115524;28;20961;-79
2021/11/22 11:19:07;;;;;;;10.93;7.93;;;3.60;99.90;;;;;;5115771;28;20424;-79
2021/11/22 11:21:38;;;;;;;15.77;7.23;;;3.70;99.90;;;;;;5115743;28;20433;-79
2021/11/22 11:24:06;;;;;;;8.90;5.93;;;3.70;99.90;;;;;;5115844;28;20493;-79
2021/11/22 11:26:34;;;;;;;10.63;7.60;;;3.70;99.90;;;;;;5116262;28;20456;-79
2021/11/22 11:29:00;;;;;;;10.63;7.40;;;3.70;99.90;;;;;;5115347;28;20541;-79
2021/11/22 11:31:27;;;;;;;12.13;7.70;;;3.70;99.90;;;;;;5116693;28;20421;-79
2021/11/22 11:33:55;;;;;;;11.97;8.10;;;3.70;99.90;;;;;;5115209;28;20851;-79
2021/11/22 11:36:39;;;;;;;11.27;6.77;;;3.70;99.90;;;;;;5116753;28;20433;-79
2021/11/22 11:39:28;;;;;;;11.07;7.17;;;3.70;99.90;;;;;;5116853;28;20394;-79
2021/11/22 11:42:09;;;;;;;8.17;6.33;;;3.60;99.90;;;;;;5104505;28;20490;-79
2021/11/22 11:44:46;;;;;;;9.20;7.37;;;3.60;99.90;;;;;;5116501;28;20405;-79
2021/11/22 11:47:46;;;;;;;9.93;7.40;;;3.50;99.90;;;;;;5114658;28;21011;-78
2021/11/22 11:50:31;;;;;;;8.80;7.30;;;3.50;99.90;;;;;;5114815;28;20768;-79
2021/11/22 11:53:04;;;;;;;8.47;7.03;;;3.50;99.90;;;;;;5114536;28;20425;-79
2021/11/22 11:55:31;;;;;;;9.37;6.67;;;3.40;99.90;;;;;;5097926;28;20402;-79
2021/11/22 11:58:26;;;;;;;10.90;7.20;;;3.50;99.90;;;;;;5115167;28;20424;-79
2021/11/22 12:01:06;;;;;;;7.93;6.10;;;3.50;99.90;;;;;;5114494;28;20433;-79
2021/11/22 12:04:00;;;;;;;9.00;6.77;;;3.40;99.90;;;;;;5114822;28;20406;-78
2021/11/22 12:06:50;;;;;;;8.43;6.40;;;3.40;99.90;;;;;;5113356;28;20564;-79
2021/11/22 12:09:30;;;;;;;8.73;6.37;;;3.40;99.90;;;;;;5113422;28;20433;-79
2021/11/22 12:12:12;;;;;;;7.63;6.20;;;3.40;99.90;;;;;;5114857;28;20914;-79
2021/11/22 12:15:07;;;;;;;14.87;6.90;;;3.50;99.90;;;;;;5118933;28;20389;-79
2021/11/22 12:17:35;;;;;;;7.57;6.10;;;3.50;99.90;;;;;;5120412;28;20458;-79
2021/11/22 12:20:07;;;;;;;8.20;6.47;;;3.50;99.90;;;;;;5120796;28;20401;-81
2021/11/22 12:22:45;;;;;;;7.57;6.30;;;3.50;99.90;;;;;;5118942;28;20433;-79
2021/11/22 12:25:42;;;;;;;10.57;6.20;;;3.60;99.90;;;;;;5119222;28;20409;-80
2021/11/22 12:28:20;;;;;;;11.03;7.27;;;3.60;99.90;;;;;;5120479;28;20421;-79
2021/11/22 12:31:03;;;;;;;11.70;6.57;;;3.60;99.90;;;;;;5118964;28;20444;-79
2021/11/22 12:33:33;;;;;;;10.00;7.63;;;3.50;99.90;;;;;;5120155;28;20381;-79
2021/11/22 12:36:11;;;;;;;9.53;7.10;;;3.50;99.90;;;;;;5119444;28;20912;-79
2021/11/22 12:38:42;;;;;;;12.40;8.43;;;3.60;99.90;;;;;;5119424;28;20412;-79
2021/11/22 12:41:19;;;;;;;7.33;6.00;;;3.50;99.90;;;;;;5118873;28;20500;-79
2021/11/22 12:43:47;;;;;;;9.73;6.40;;;3.60;99.90;;;;;;5118846;28;20405;-79
2021/11/22 12:46:19;;;;;;;7.10;6.40;;;3.60;99.90;;;;;;5119030;28;20681;-79
2021/11/22 12:48:47;;;;;;;7.57;6.47;;;3.60;99.90;;;;;;5120407;28;20453;-80